createdAt,value
2022-09-04T00:01:14.085Z,55.34
2022-09-04T00:04:14.765Z,55.72
2022-09-04T00:06:55.613Z,55.30
2022-09-04T00:09:37.540Z,55.69
2022-09-04T00:12:08.930Z,55.54
2022-09-04T00:14:50.771Z,55.77
2022-09-04T00:17:48.256Z,55.73
2022-09-04T00:20:17.790Z,55.80
2022-09-04T00:22:47.373Z,55.57
2022-09-04T00:25:28.638Z,55.92
2022-09-04T00:28:05.329Z,55.75
2022-09-04T00:30:35.840Z,55.77
2022-09-04T00:33:41.372Z,55.93
2022-09-04T00:36:08.747Z,56.10
2022-09-04T00:38:48.929Z,56.13
2022-09-04T00:41:39.111Z,56.09
2022-09-04T00:44:34.706Z,56.37
2022-09-04T00:47:28.995Z,56.39
2022-09-04T00:49:59.636Z,56.07
2022-09-04T00:52:58.165Z,56.38
2022-09-04T00:55:44.312Z,56.17
2022-09-04T00:58:51.420Z,56.49
2022-09-04T01:01:27.642Z,56.61
2022-09-04T01:04:03.424Z,56.41
2022-09-04T01:06:37.930Z,56.29
2022-09-04T01:09:31.253Z,56.46
2022-09-04T01:12:43.667Z,56.38
2022-09-04T01:15:21.087Z,56.34
2022-09-04T01:18:30.967Z,56.61
2022-09-04T01:21:15.172Z,56.51
2022-09-04T01:23:47.989Z,56.24
2022-09-04T01:26:17.385Z,56.38
2022-09-04T01:28:59.321Z,56.33
2022-09-04T01:31:41.982Z,56.28
2022-09-04T01:34:08.848Z,56.30
2022-09-04T01:36:50.138Z,56.25
2022-09-04T01:39:22.763Z,56.23
2022-09-04T01:42:00.417Z,56.33
2022-09-04T01:44:27.908Z,56.39
2022-09-04T01:47:21.375Z,56.31
2022-09-04T01:49:58.362Z,55.96
2022-09-04T01:52:48.613Z,56.29
2022-09-04T01:55:31.813Z,56.26
2022-09-04T01:58:35.931Z,56.34
2022-09-04T02:01:14.458Z,56.18
2022-09-04T02:03:57.466Z,56.37
2022-09-04T02:06:36.675Z,56.51
2022-09-04T02:09:36.439Z,56.37
2022-09-04T02:12:07.150Z,56.22
2022-09-04T02:14:49.638Z,56.26
2022-09-04T02:17:44.892Z,56.38
2022-09-04T02:20:22.266Z,56.41
2022-09-04T02:23:11.896Z,55.85
2022-09-04T02:25:51.009Z,56.33
2022-09-04T02:28:48.758Z,56.25
2022-09-04T02:31:24.458Z,56.20
2022-09-04T02:34:29.882Z,56.21
2022-09-04T02:37:01.809Z,56.15
2022-09-04T02:40:06.112Z,56.28
2022-09-04T02:42:54.723Z,56.25
2022-09-04T02:45:44.868Z,56.12
2022-09-04T02:48:45.142Z,56.09
2022-09-04T02:51:31.183Z,56.02
2022-09-04T02:54:14.662Z,55.85
2022-09-04T02:57:00.131Z,55.68
2022-09-04T02:59:52.935Z,55.54
2022-09-04T03:02:24.578Z,55.41
2022-09-04T03:05:15.609Z,55.65
2022-09-04T03:08:06.632Z,55.70
2022-09-04T03:10:50.870Z,55.53
2022-09-04T03:13:28.238Z,55.42
2022-09-04T03:16:24.213Z,55.33
2022-09-04T03:19:22.137Z,55.18
2022-09-04T03:22:10.716Z,55.03
2022-09-04T03:24:58.669Z,54.87
2022-09-04T03:27:27.544Z,55.03
2022-09-04T03:30:08.143Z,55.07
2022-09-04T03:32:55.525Z,54.91
2022-09-04T03:35:42.418Z,54.83
2022-09-04T03:38:34.043Z,54.60
2022-09-04T03:41:31.356Z,54.61
2022-09-04T03:44:12.275Z,54.47
2022-09-04T03:46:50.925Z,54.58
2022-09-04T03:49:54.806Z,54.66
2022-09-04T03:52:37.012Z,54.53
2022-09-04T03:55:16.580Z,54.46
2022-09-04T03:57:56.272Z,54.47
2022-09-04T04:00:23.187Z,54.62
2022-09-04T04:03:31.493Z,54.54
2022-09-04T04:06:06.987Z,54.74
2022-09-04T04:08:59.207Z,54.67
2022-09-04T04:12:00.231Z,54.60
2022-09-04T04:14:59.475Z,54.81
2022-09-04T04:17:51.006Z,54.45
2022-09-04T04:20:42.426Z,54.39
2022-09-04T04:23:18.596Z,54.47
2022-09-04T04:26:00.762Z,54.46
2022-09-04T04:29:00.021Z,54.28
2022-09-04T04:31:46.075Z,54.35
2022-09-04T04:34:22.618Z,54.41
2022-09-04T04:36:59.985Z,54.29
2022-09-04T04:39:57.295Z,54.30
2022-09-04T04:42:55.226Z,54.36
2022-09-04T04:45:52.321Z,54.35
2022-09-04T04:48:56.309Z,54.35
2022-09-04T04:51:39.907Z,54.35
2022-09-04T04:54:37.125Z,54.43
2022-09-04T04:57:27.768Z,54.36
2022-09-04T05:00:25.282Z,54.33
2022-09-04T05:03:19.177Z,54.42
2022-09-04T05:06:10.303Z,54.48
2022-09-04T05:08:50.238Z,54.44
2022-09-04T05:11:47.411Z,54.54
2022-09-04T05:14:22.733Z,54.49
2022-09-04T05:17:01.229Z,54.53
2022-09-04T05:19:52.600Z,54.64
2022-09-04T05:22:42.459Z,54.64
2022-09-04T05:25:16.935Z,54.68
2022-09-04T05:27:43.595Z,54.02
2022-09-04T05:30:47.959Z,54.77
2022-09-04T05:33:53.005Z,54.59
2022-09-04T05:36:38.399Z,54.77
2022-09-04T05:39:13.954Z,54.75
2022-09-04T05:42:06.358Z,55.05
2022-09-04T05:44:59.842Z,55.02
2022-09-04T05:47:56.443Z,54.87
2022-09-04T05:50:44.173Z,55.02
2022-09-04T05:53:39.308Z,55.40
2022-09-04T05:56:30.444Z,55.42
2022-09-04T05:59:24.125Z,55.50
2022-09-04T06:02:15.534Z,55.56
2022-09-04T06:05:10.913Z,55.37
2022-09-04T06:07:53.225Z,55.42
2022-09-04T06:10:57.892Z,55.29
2022-09-04T06:13:36.386Z,55.27
2022-09-04T06:16:29.519Z,55.52
2022-09-04T06:19:17.667Z,55.39
2022-09-04T06:22:10.046Z,55.22
2022-09-04T06:24:53.129Z,54.96
2022-09-04T06:27:57.763Z,55.25
2022-09-04T06:30:31.500Z,54.89
2022-09-04T06:33:30.258Z,54.82
2022-09-04T06:36:13.285Z,55.22
2022-09-04T06:39:00.967Z,54.75
2022-09-04T06:41:44.755Z,54.13
2022-09-04T06:44:26.987Z,53.59
2022-09-04T06:47:06.608Z,53.58
2022-09-04T06:50:09.718Z,53.65
2022-09-04T06:53:04.585Z,53.15
2022-09-04T06:56:05.409Z,52.68
2022-09-04T06:58:40.970Z,52.19
2022-09-04T07:01:13.712Z,51.90
2022-09-04T07:03:46.355Z,51.76
2022-09-04T07:06:22.211Z,51.61
2022-09-04T07:09:16.984Z,51.60
2022-09-04T07:12:12.681Z,51.52
2022-09-04T07:15:01.177Z,51.77
2022-09-04T07:17:36.977Z,51.16
2022-09-04T07:20:14.635Z,51.16
2022-09-04T07:22:59.797Z,50.69
2022-09-04T07:25:39.723Z,50.56
2022-09-04T07:28:51.990Z,50.68
2022-09-04T07:31:27.603Z,50.14
2022-09-04T07:34:12.663Z,49.80
2022-09-04T07:37:03.008Z,49.64
2022-09-04T07:39:46.821Z,49.58
2022-09-04T07:42:26.415Z,49.33
2022-09-04T07:45:16.703Z,48.92
2022-09-04T07:47:50.090Z,48.48
2022-09-04T07:50:29.475Z,48.17
2022-09-04T07:53:30.992Z,48.41
2022-09-04T07:56:20.391Z,47.84
2022-09-04T07:58:55.882Z,48.12
2022-09-04T08:01:50.410Z,47.67
2022-09-04T08:04:38.273Z,47.67
2022-09-04T08:07:12.443Z,47.72
2022-09-04T08:09:54.017Z,46.73
2022-09-04T08:13:08.927Z,46.86
2022-09-04T08:15:42.173Z,46.74
2022-09-04T08:18:30.375Z,46.94
2022-09-04T08:21:17.719Z,46.68
2022-09-04T08:23:50.145Z,46.76
2022-09-04T08:26:19.463Z,46.58
2022-09-04T08:29:24.081Z,46.53
2022-09-04T08:32:09.293Z,46.74
2022-09-04T08:34:50.591Z,46.71
2022-09-04T08:37:26.979Z,47.09
2022-09-04T08:40:13.460Z,46.91
2022-09-04T08:43:07.722Z,47.60
2022-09-04T08:45:42.207Z,47.69
2022-09-04T08:48:41.057Z,47.91
2022-09-04T08:51:19.917Z,48.04
2022-09-04T08:54:12.365Z,47.88
2022-09-04T08:56:58.389Z,48.29
2022-09-04T09:00:02.922Z,48.18
2022-09-04T09:02:48.061Z,48.13
2022-09-04T09:05:20.558Z,48.42
2022-09-04T09:08:01.941Z,48.17
2022-09-04T09:10:44.625Z,48.39
2022-09-04T09:13:26.401Z,47.62
2022-09-04T09:16:14.781Z,47.50
2022-09-04T09:18:47.675Z,47.65
2022-09-04T09:21:42.546Z,47.01
2022-09-04T09:24:44.557Z,46.56
2022-09-04T09:27:14.897Z,46.77
2022-09-04T09:29:56.727Z,46.18
2022-09-04T09:32:26.315Z,45.56
2022-09-04T09:35:13.925Z,45.59
2022-09-04T09:37:43.870Z,45.73
2022-09-04T09:40:42.230Z,46.26
2022-09-04T09:43:46.508Z,46.39
2022-09-04T09:46:39.442Z,46.24
2022-09-04T09:49:18.031Z,46.44
2022-09-04T09:52:03.534Z,47.06
2022-09-04T09:54:55.518Z,46.66
2022-09-04T09:57:33.173Z,46.81
2022-09-04T10:00:21.465Z,45.93
2022-09-04T10:03:17.186Z,45.90
2022-09-04T10:06:05.721Z,45.80
2022-09-04T10:08:50.305Z,46.46
2022-09-04T10:11:28.992Z,46.30
2022-09-04T10:14:30.771Z,46.30
2022-09-04T10:17:27.209Z,46.60
2022-09-04T10:20:42.054Z,46.28
2022-09-04T10:23:42.692Z,46.50
2022-09-04T10:26:47.848Z,46.58
2022-09-04T10:29:45.257Z,46.57
2022-09-04T10:32:11.846Z,47.21
2022-09-04T10:35:09.703Z,46.85
2022-09-04T10:38:00.570Z,47.36
2022-09-04T10:40:46.057Z,46.93
2022-09-04T10:43:40.506Z,47.25
2022-09-04T10:46:26.370Z,47.68
2022-09-04T10:49:30.569Z,47.98
2022-09-04T10:52:09.360Z,48.18
2022-09-04T10:55:21.297Z,48.38
2022-09-04T10:58:03.318Z,48.92
2022-09-04T11:00:50.661Z,49.04
2022-09-04T11:03:28.482Z,49.81
2022-09-04T11:06:11.216Z,50.11
2022-09-04T11:08:56.488Z,51.10
2022-09-04T11:11:39.210Z,50.92
2022-09-04T11:14:43.601Z,51.28
2022-09-04T11:17:19.727Z,51.33
2022-09-04T11:20:28.545Z,52.18
2022-09-04T11:23:32.150Z,52.71
2022-09-04T11:26:05.788Z,53.12
2022-09-04T11:28:40.477Z,53.44
2022-09-04T11:31:49.626Z,54.52
2022-09-04T11:34:57.027Z,54.63
2022-09-04T11:38:04.470Z,54.54
2022-09-04T11:41:05.630Z,54.06
2022-09-04T11:43:55.976Z,53.89
2022-09-04T11:46:39.354Z,53.65
2022-09-04T11:49:27.052Z,53.62
2022-09-04T11:52:40.571Z,53.65
2022-09-04T11:55:48.387Z,53.34
2022-09-04T11:58:24.595Z,53.44
2022-09-04T12:01:00.994Z,53.90
2022-09-04T12:03:46.978Z,54.33
2022-09-04T12:06:48.723Z,54.18
2022-09-04T12:09:36.618Z,54.64
2022-09-04T12:12:29.166Z,55.02
2022-09-04T12:15:24.100Z,54.64
2022-09-04T12:18:19.265Z,55.38
2022-09-04T12:21:05.679Z,55.08
2022-09-04T12:24:03.726Z,54.90
2022-09-04T12:27:03.344Z,54.60
2022-09-04T12:29:37.173Z,54.61
2022-09-04T12:32:19.629Z,54.57
2022-09-04T12:34:50.626Z,54.88
2022-09-04T12:37:51.245Z,54.50
2022-09-04T12:40:27.068Z,54.10
2022-09-04T12:43:20.741Z,54.60
2022-09-04T12:46:12.926Z,51.14
2022-09-04T12:49:02.220Z,47.00
2022-09-04T12:51:52.000Z,45.57
2022-09-04T12:54:52.259Z,42.99
2022-09-04T12:57:40.397Z,42.92
2022-09-04T13:00:12.984Z,42.30
2022-09-04T13:03:05.364Z,41.84
2022-09-04T13:05:53.503Z,42.23
2022-09-04T13:09:25.289Z,42.30
2022-09-04T13:12:02.546Z,41.76
2022-09-04T13:14:50.651Z,41.01
2022-09-04T13:17:26.062Z,40.77
2022-09-04T13:20:06.508Z,40.75
2022-09-04T13:22:59.201Z,40.42
2022-09-04T13:25:35.408Z,40.01
2022-09-04T13:28:31.602Z,39.94
2022-09-04T13:31:09.123Z,40.78
2022-09-04T13:33:59.186Z,41.34
2022-09-04T13:36:37.363Z,41.36
2022-09-04T13:39:28.485Z,42.40
2022-09-04T13:42:00.050Z,42.29
2022-09-04T13:45:05.832Z,42.91
2022-09-04T13:47:49.587Z,43.31
2022-09-04T13:50:25.573Z,43.87
2022-09-04T13:53:16.529Z,43.96
2022-09-04T13:56:14.542Z,43.73
2022-09-04T13:58:52.967Z,44.08
2022-09-04T14:01:28.291Z,44.13
2022-09-04T14:04:05.054Z,43.86
2022-09-04T14:06:32.922Z,44.36
2022-09-04T14:09:05.421Z,44.05
2022-09-04T14:11:58.558Z,44.33
2022-09-04T14:14:34.943Z,44.26
2022-09-04T14:17:01.706Z,44.44
2022-09-04T14:20:03.942Z,44.51
2022-09-04T14:22:52.929Z,44.27
2022-09-04T14:25:39.454Z,44.65
2022-09-04T14:28:48.408Z,44.69
2022-09-04T14:31:35.359Z,45.69
2022-09-04T14:34:17.386Z,45.27
2022-09-04T14:37:08.295Z,45.06
2022-09-04T14:39:49.123Z,45.06
2022-09-04T14:42:27.088Z,45.10
2022-09-04T14:45:18.313Z,45.38
2022-09-04T14:47:55.070Z,45.32
2022-09-04T14:50:32.265Z,45.70
2022-09-04T14:53:07.788Z,45.79
2022-09-04T14:55:41.643Z,46.15
2022-09-04T14:58:24.976Z,45.81
2022-09-04T15:01:04.068Z,45.62
2022-09-04T15:03:45.750Z,45.77
2022-09-04T15:06:19.321Z,46.04
2022-09-04T15:08:51.850Z,46.62
2022-09-04T15:11:32.243Z,46.78
2022-09-04T15:14:34.326Z,46.89
2022-09-04T15:17:04.999Z,46.89
2022-09-04T15:20:17.055Z,47.06
2022-09-04T15:22:54.399Z,47.04
2022-09-04T15:25:58.872Z,46.54
2022-09-04T15:28:48.010Z,46.04
2022-09-04T15:31:42.689Z,46.23
2022-09-04T15:34:26.102Z,45.84
2022-09-04T15:36:53.831Z,46.12
2022-09-04T15:39:48.713Z,46.69
2022-09-04T15:42:37.460Z,46.43
2022-09-04T15:45:14.146Z,46.57
2022-09-04T15:48:22.727Z,47.20
2022-09-04T15:51:01.898Z,47.28
2022-09-04T15:53:37.957Z,47.82
2022-09-04T15:56:33.048Z,47.84
2022-09-04T15:59:15.333Z,48.04
2022-09-04T16:01:51.642Z,48.26
2022-09-04T16:04:46.146Z,48.59
2022-09-04T16:07:19.900Z,48.75
2022-09-04T16:09:54.424Z,48.80
2022-09-04T16:12:30.974Z,49.09
2022-09-04T16:15:04.293Z,49.36
2022-09-04T16:17:45.528Z,49.59
2022-09-04T16:20:23.704Z,49.80
2022-09-04T16:23:02.485Z,50.00
2022-09-04T16:25:45.521Z,49.98
2022-09-04T16:31:16.301Z,50.17
2022-09-04T16:33:51.854Z,50.58
2022-09-04T16:36:29.001Z,50.32
2022-09-04T16:39:02.438Z,50.65
2022-09-04T16:41:51.454Z,51.00
2022-09-04T16:44:26.279Z,51.16
2022-09-04T16:47:49.230Z,51.26
2022-09-04T16:50:55.974Z,51.55
2022-09-04T16:56:51.869Z,52.28
2022-09-04T16:59:33.081Z,52.38
2022-09-04T17:02:41.961Z,53.06
2022-09-04T17:05:42.931Z,53.15
2022-09-04T17:08:29.385Z,53.35
2022-09-04T17:11:23.183Z,53.55
2022-09-04T17:14:08.885Z,53.60
2022-09-04T17:16:53.491Z,53.72
2022-09-04T17:19:22.299Z,54.14
2022-09-04T17:28:48.765Z,54.19
2022-09-04T17:29:10.107Z,54.30
2022-09-04T17:29:13.399Z,54.19
2022-09-04T17:31:58.041Z,54.24
2022-09-04T17:38:22.978Z,54.31
2022-09-04T17:40:55.517Z,55.04
2022-09-04T17:41:31.198Z,54.77
2022-09-04T17:44:27.894Z,54.94
2022-09-04T17:47:26.994Z,55.39
2022-09-04T17:49:55.713Z,55.29
2022-09-04T17:52:35.247Z,55.40
2022-09-04T17:55:04.341Z,55.42
2022-09-04T17:57:56.955Z,55.51
2022-09-04T18:00:33.035Z,55.68
2022-09-04T18:03:10.790Z,55.79
2022-09-04T18:05:53.618Z,55.54
2022-09-04T18:08:32.609Z,55.40
2022-09-04T18:11:09.432Z,55.53
2022-09-04T18:13:56.626Z,56.03
2022-09-04T18:17:12.458Z,56.12
2022-09-04T18:19:48.753Z,55.79
2022-09-04T18:22:33.207Z,55.73
2022-09-04T18:25:17.000Z,56.18
2022-09-04T18:28:07.539Z,56.11
2022-09-04T18:37:09.857Z,56.14
2022-09-04T18:37:15.979Z,55.95
2022-09-04T18:37:55.266Z,56.35
2022-09-04T18:40:53.515Z,56.07
2022-09-04T18:50:20.339Z,56.31
2022-09-04T18:50:44.948Z,56.80
2022-09-04T18:50:53.243Z,56.57
2022-09-04T18:52:06.317Z,56.81
2022-09-04T18:54:47.930Z,57.31
2022-09-04T18:57:27.160Z,57.23
2022-09-04T19:00:07.943Z,57.29
2022-09-04T19:02:53.763Z,57.32
2022-09-04T19:05:22.076Z,57.14
2022-09-04T19:07:57.003Z,57.29
2022-09-04T19:10:31.282Z,57.50
2022-09-04T19:13:22.500Z,57.11
2022-09-04T19:15:58.176Z,57.19
2022-09-04T19:18:46.725Z,57.57
2022-09-04T19:21:21.712Z,57.30
2022-09-04T19:23:58.883Z,57.46
2022-09-04T19:26:42.567Z,57.33
2022-09-04T19:29:30.706Z,57.36
2022-09-04T19:32:18.691Z,57.25
2022-09-04T19:34:52.729Z,57.63
2022-09-04T19:40:16.592Z,57.30
2022-09-04T19:45:59.278Z,57.65
2022-09-04T19:46:15.954Z,58.33
2022-09-04T19:46:53.996Z,58.04
2022-09-04T19:51:50.946Z,58.19
2022-09-04T19:53:32.278Z,58.44
2022-09-04T19:55:40.695Z,58.71
2022-09-04T19:58:20.594Z,58.69
2022-09-04T20:00:55.341Z,59.18
2022-09-04T20:03:30.474Z,59.39
2022-09-04T20:06:20.562Z,59.62
2022-09-04T20:09:17.799Z,59.83
2022-09-04T20:11:54.551Z,59.50
2022-09-04T20:14:39.793Z,59.60
2022-09-04T20:17:43.904Z,59.85
2022-09-04T20:20:23.242Z,59.93
2022-09-04T20:22:56.424Z,60.10
2022-09-04T20:25:40.731Z,59.81
2022-09-04T20:28:25.051Z,59.75
2022-09-04T20:31:33.341Z,60.17
2022-09-04T20:34:44.819Z,60.13
2022-09-04T20:37:29.481Z,59.90
2022-09-04T20:40:07.860Z,60.03
2022-09-04T20:42:43.624Z,60.20
2022-09-04T20:50:34.705Z,60.00
2022-09-04T20:53:00.038Z,60.21
2022-09-04T20:53:06.322Z,60.43
2022-09-04T20:54:29.147Z,60.55
2022-09-04T21:00:07.608Z,60.57
2022-09-04T21:03:21.099Z,61.05
2022-09-04T21:03:23.560Z,60.84
2022-09-04T21:06:30.079Z,61.25
2022-09-04T21:09:13.279Z,61.09
2022-09-04T21:11:45.318Z,60.96
2022-09-04T21:14:29.981Z,61.12
2022-09-04T21:17:35.628Z,61.06
2022-09-04T21:20:08.463Z,61.46
2022-09-04T21:22:59.828Z,61.57
2022-09-04T21:25:35.783Z,61.58
2022-09-04T21:28:26.614Z,61.96
2022-09-04T21:31:10.318Z,61.95
2022-09-04T21:34:09.802Z,61.93
2022-09-04T21:37:02.715Z,62.21
2022-09-04T21:39:58.505Z,62.39
2022-09-04T21:42:31.224Z,62.44
2022-09-04T21:45:04.752Z,62.32
2022-09-04T21:47:50.134Z,62.47
2022-09-04T21:50:28.485Z,62.36
2022-09-04T21:53:47.699Z,63.05
2022-09-04T22:01:33.221Z,62.78
2022-09-04T22:02:31.713Z,62.75
2022-09-04T22:03:02.434Z,62.95
2022-09-04T22:05:43.910Z,62.97
2022-09-04T22:12:16.849Z,62.90
2022-09-04T22:13:37.503Z,63.07
2022-09-04T22:14:25.626Z,63.03
2022-09-04T22:17:06.802Z,63.32
2022-09-04T22:19:58.290Z,63.33
2022-09-04T22:22:54.710Z,63.22
2022-09-04T22:25:27.258Z,63.50
2022-09-04T22:28:21.514Z,63.17
2022-09-04T22:31:03.004Z,63.38
2022-09-04T22:34:15.040Z,63.20
2022-09-04T22:37:05.304Z,63.28
2022-09-04T22:39:54.317Z,63.27
2022-09-04T22:42:56.182Z,63.50
2022-09-04T22:45:44.694Z,63.67
2022-09-04T22:48:33.024Z,63.77
2022-09-04T22:51:33.228Z,63.78
2022-09-04T22:53:59.893Z,63.89
2022-09-04T22:56:32.486Z,63.92
2022-09-04T22:59:29.040Z,64.23
2022-09-04T23:02:17.184Z,64.00
2022-09-04T23:05:28.579Z,64.29
2022-09-04T23:13:49.834Z,63.86
2022-09-04T23:13:51.398Z,63.96
2022-09-04T23:14:45.330Z,64.01
2022-09-04T23:17:30.532Z,64.08
2022-09-04T23:26:38.020Z,63.95
2022-09-04T23:26:42.225Z,63.90
2022-09-04T23:26:49.409Z,64.23
2022-09-04T23:29:55.818Z,63.98
2022-09-04T23:33:02.738Z,63.70
2022-09-04T23:36:00.022Z,63.71
2022-09-04T23:39:27.880Z,63.43
2022-09-04T23:42:36.031Z,63.10
2022-09-04T23:45:18.305Z,63.16
2022-09-04T23:48:17.370Z,62.76
2022-09-04T23:50:49.890Z,62.49
2022-09-04T23:54:25.082Z,62.22
2022-09-04T23:57:27.987Z,61.41
